createdAt,value
2022-08-03T00:19:07.176Z,82
2022-08-03T02:08:06.941Z,89.9
2022-08-03T05:16:06.948Z,91.6
2022-08-03T05:46:12.440Z,81.4
2022-08-03T05:50:06.926Z,80.4
2022-08-03T05:52:13.498Z,80.9
2022-08-03T05:58:06.922Z,79
2022-08-03T06:05:06.937Z,77
2022-08-03T06:07:07.438Z,76.3
2022-08-03T06:08:06.926Z,75.8
2022-08-03T06:09:06.981Z,75.2
2022-08-03T06:10:34.867Z,75.2
2022-08-03T06:11:06.930Z,75.2
2022-08-03T06:15:07.823Z,73.8
2022-08-03T06:16:06.927Z,74.3
2022-08-03T06:17:06.931Z,73.7
2022-08-03T06:18:06.923Z,73.3
2022-08-03T06:19:06.936Z,74.3
2022-08-03T06:20:06.929Z,73.3
2022-08-03T06:21:14.582Z,72.9
2022-08-03T06:22:06.932Z,73.3
2022-08-03T06:23:07.469Z,73.2
2022-08-03T06:24:06.938Z,72.8
2022-08-03T06:25:11.274Z,72.6
2022-08-03T06:26:06.933Z,72.8
2022-08-03T06:27:06.923Z,72.1
2022-08-03T06:28:09.501Z,71.2
2022-08-03T06:29:08.544Z,71.2
2022-08-03T06:30:06.936Z,71.1
2022-08-03T06:31:06.926Z,71.2
2022-08-03T06:32:06.997Z,71.1
2022-08-03T06:33:08.255Z,71.6
2022-08-03T06:34:32.770Z,71.4
2022-08-03T06:35:06.942Z,71.4
2022-08-03T06:36:06.934Z,71.8
2022-08-03T06:37:06.938Z,70.2
2022-08-03T06:38:06.936Z,70.7
2022-08-03T06:39:08.130Z,70.3
2022-08-03T06:40:06.939Z,70.7
2022-08-03T06:41:06.945Z,71.3
2022-08-03T06:42:06.934Z,70.5
2022-08-03T06:43:10.751Z,70.5
2022-08-03T06:44:06.935Z,69.9
2022-08-03T06:45:06.934Z,69.8
2022-08-03T06:46:06.949Z,70
2022-08-03T06:47:06.942Z,69.6
2022-08-03T06:48:06.946Z,68.9
2022-08-03T06:49:07.004Z,69.8
2022-08-03T06:50:16.314Z,69
2022-08-03T06:51:07.158Z,69.2
2022-08-03T06:52:07.155Z,69.2
2022-08-03T06:53:06.944Z,68.4
2022-08-03T06:54:06.984Z,67.6
2022-08-03T06:55:06.964Z,67
2022-08-03T06:56:06.956Z,66.9
2022-08-03T06:57:07.010Z,66.8
2022-08-03T06:58:06.956Z,67
2022-08-03T06:59:06.957Z,67
2022-08-03T07:00:11.872Z,66.6
2022-08-03T07:01:07.012Z,66.7
2022-08-03T07:02:06.979Z,67
2022-08-03T07:03:06.962Z,66.8
2022-08-03T07:04:06.959Z,66.4
2022-08-03T07:05:06.981Z,66.8
2022-08-03T07:06:06.953Z,66.4
2022-08-03T07:07:06.960Z,65.9
2022-08-03T07:08:06.968Z,65.4
2022-08-03T07:09:06.969Z,65.1
2022-08-03T07:10:06.965Z,65.8
2022-08-03T07:11:06.961Z,65.7
2022-08-03T07:12:06.955Z,65.6
2022-08-03T07:13:06.962Z,65.1
2022-08-03T07:14:06.964Z,64.9
2022-08-03T07:15:06.962Z,63.7
2022-08-03T07:16:06.991Z,64.3
2022-08-03T07:17:11.508Z,64.4
2022-08-03T07:18:06.967Z,62.9
2022-08-03T07:19:06.967Z,63.4
2022-08-03T07:20:06.962Z,64.4
2022-08-03T07:21:06.975Z,63.7
2022-08-03T07:22:06.970Z,63.5
2022-08-03T07:23:06.978Z,64.2
2022-08-03T07:24:06.974Z,64
2022-08-03T07:25:06.972Z,63.8
2022-08-03T07:26:06.993Z,64.3
2022-08-03T07:27:06.969Z,64.1
2022-08-03T07:28:06.971Z,63.1
2022-08-03T07:29:14.732Z,63.5
2022-08-03T07:30:06.977Z,63.6
2022-08-03T07:31:06.978Z,63
2022-08-03T07:32:06.972Z,62.5
2022-08-03T07:33:06.995Z,62.3
2022-08-03T07:34:08.357Z,62
2022-08-03T07:35:08.736Z,62.5
2022-08-03T07:36:07.037Z,62.8
2022-08-03T07:37:06.975Z,62.4
2022-08-03T07:38:06.987Z,62.4
2022-08-03T07:39:15.746Z,61.4
2022-08-03T07:40:06.986Z,61.2
2022-08-03T07:41:06.977Z,60.7
2022-08-03T07:42:06.988Z,60.7
2022-08-03T07:43:06.984Z,60.4
2022-08-03T07:44:06.980Z,59.8
2022-08-03T07:45:07.050Z,59.4
2022-08-03T07:46:06.984Z,60
2022-08-03T07:47:06.982Z,59.2
2022-08-03T07:48:11.793Z,59.8
2022-08-03T07:49:07.032Z,59
2022-08-03T07:50:08.747Z,60
2022-08-03T07:51:06.988Z,59.1
2022-08-03T07:52:06.989Z,58.2
2022-08-03T07:53:06.994Z,58.1
2022-08-03T07:54:06.988Z,58.5
2022-08-03T07:55:07.001Z,57.9
2022-08-03T07:56:11.258Z,58.4
2022-08-03T07:57:07.006Z,58.5
2022-08-03T07:58:06.993Z,58.8
2022-08-03T07:59:06.994Z,58.6
2022-08-03T08:00:06.996Z,59.1
2022-08-03T08:01:07.019Z,58.8
2022-08-03T08:02:06.999Z,58.4
2022-08-03T08:03:07.006Z,58.5
2022-08-03T08:04:07.003Z,58.1
2022-08-03T08:05:07.002Z,58.3
2022-08-03T08:06:07.006Z,58
2022-08-03T08:08:07.057Z,56.9
2022-08-03T08:09:06.998Z,57.1
2022-08-03T08:10:07.006Z,57.1
2022-08-03T08:11:07.000Z,56.6
2022-08-03T08:12:07.019Z,56.5
2022-08-03T08:13:07.005Z,57.3
2022-08-03T08:14:07.008Z,55.4
2022-08-03T08:15:06.999Z,55.9
2022-08-03T08:16:07.003Z,55.9
2022-08-03T08:17:07.554Z,56
2022-08-03T08:18:07.026Z,56.1
2022-08-03T08:19:07.006Z,55.5
2022-08-03T08:20:07.014Z,55.4
2022-08-03T08:21:07.006Z,54.4
2022-08-03T08:22:07.011Z,54.3
2022-08-03T08:23:18.586Z,52.8
2022-08-03T08:24:10.949Z,52.9
2022-08-03T08:25:07.016Z,53.7
2022-08-03T08:26:07.032Z,53.3
2022-08-03T08:27:07.013Z,53.6
2022-08-03T08:28:31.033Z,52.5
2022-08-03T08:29:07.014Z,53.1
2022-08-03T08:30:11.441Z,53.7
2022-08-03T08:31:07.014Z,52.8
2022-08-03T08:32:07.019Z,54.2
2022-08-03T08:33:08.604Z,53.3
2022-08-03T08:34:07.017Z,53
2022-08-03T08:35:07.016Z,53.2
2022-08-03T08:36:07.821Z,52.5
2022-08-03T08:37:07.024Z,52.3
2022-08-03T08:38:07.022Z,52.3
2022-08-03T08:39:07.022Z,53.4
2022-08-03T08:40:07.049Z,52.3
2022-08-03T08:41:07.033Z,52.3
2022-08-03T08:42:07.017Z,51.5
2022-08-03T08:43:07.686Z,51.4
2022-08-03T08:44:07.027Z,52.6
2022-08-03T08:45:07.017Z,53.4
2022-08-03T08:46:07.024Z,53
2022-08-03T08:47:07.025Z,52.8
2022-08-03T08:48:08.454Z,52.7
2022-08-03T08:49:07.083Z,51.9
2022-08-03T08:50:15.525Z,51.6
2022-08-03T08:51:07.030Z,50.2
2022-08-03T08:52:25.496Z,51.1
2022-08-03T08:53:07.040Z,51.6
2022-08-03T08:54:07.027Z,52.1
2022-08-03T08:55:07.030Z,51.8
2022-08-03T08:56:07.043Z,51.4
2022-08-03T08:57:21.287Z,51.9
2022-08-03T08:58:07.040Z,51.3
2022-08-03T08:59:07.038Z,51.2
2022-08-03T09:00:07.038Z,49.8
2022-08-03T09:02:07.049Z,48.9
2022-08-03T09:03:07.040Z,48.2
2022-08-03T09:04:07.045Z,48.6
2022-08-03T09:05:07.749Z,48.6
2022-08-03T09:06:07.039Z,48.5
2022-08-03T09:07:29.060Z,49
2022-08-03T09:08:07.064Z,49.1
2022-08-03T09:09:07.051Z,48.7
2022-08-03T09:10:12.700Z,49
2022-08-03T09:11:07.050Z,49.4
2022-08-03T09:12:35.404Z,48.8
2022-08-03T09:13:07.043Z,47.9
2022-08-03T09:14:07.053Z,48.2
2022-08-03T09:15:17.088Z,46.7
2022-08-03T09:16:07.045Z,47.4
2022-08-03T09:17:07.070Z,46.8
2022-08-03T09:18:07.045Z,46.7
2022-08-03T09:19:07.052Z,46.3
2022-08-03T09:20:07.067Z,47
2022-08-03T09:21:29.728Z,46.3
2022-08-03T09:22:07.067Z,46.3
2022-08-03T09:23:43.012Z,46.6
2022-08-03T09:24:13.124Z,46.5
2022-08-03T09:25:23.836Z,46.8
2022-08-03T09:26:07.063Z,45
2022-08-03T09:27:07.055Z,45.5
2022-08-03T09:28:07.075Z,45.2
2022-08-03T09:29:13.500Z,44.6
2022-08-03T09:30:07.066Z,44.5
2022-08-03T09:31:07.063Z,43.5
2022-08-03T09:32:07.058Z,43
2022-08-03T09:33:08.347Z,43
2022-08-03T09:34:07.101Z,42.5
2022-08-03T09:35:09.344Z,43.5
2022-08-03T09:36:07.074Z,43.5
2022-08-03T09:37:07.072Z,43.5
2022-08-03T09:38:13.920Z,42.7
2022-08-03T09:39:07.066Z,42.3
2022-08-03T09:40:08.315Z,43.5
2022-08-03T09:41:07.084Z,43.1
2022-08-03T09:42:07.072Z,42.5
2022-08-03T09:43:07.068Z,42.1
2022-08-03T09:44:07.073Z,41.7
2022-08-03T09:45:07.079Z,42.6
2022-08-03T09:46:07.073Z,42.6
2022-08-03T09:47:07.080Z,41.8
2022-08-03T09:48:07.079Z,41.5
2022-08-03T09:49:07.113Z,41.6
2022-08-03T09:50:07.077Z,41.8
2022-08-03T09:51:13.846Z,41.2
2022-08-03T09:52:32.735Z,41.6
2022-08-03T09:54:15.093Z,41.1
2022-08-03T09:55:07.084Z,41.8
2022-08-03T09:56:33.721Z,40.7
2022-08-03T09:57:07.089Z,41.6
2022-08-03T09:58:07.094Z,42.1
2022-08-03T09:59:07.137Z,42.1
2022-08-03T10:00:08.478Z,41.4
2022-08-03T10:01:07.165Z,41.7
2022-08-03T10:03:07.082Z,41
2022-08-03T10:04:07.089Z,39.9
2022-08-03T10:05:07.085Z,38.9
2022-08-03T10:06:07.138Z,38.7
2022-08-03T10:07:07.086Z,38.4
2022-08-03T10:08:07.096Z,39
2022-08-03T10:09:07.090Z,38.5
2022-08-03T10:10:31.406Z,38.2
2022-08-03T10:11:07.101Z,37.1
2022-08-03T10:12:07.098Z,36.8
2022-08-03T10:13:07.103Z,37
2022-08-03T10:14:07.090Z,37.2
2022-08-03T10:15:07.097Z,37.7
2022-08-03T10:16:21.476Z,36.9
2022-08-03T10:17:07.138Z,37.8
2022-08-03T10:18:07.098Z,38.4
2022-08-03T10:19:07.103Z,37.5
2022-08-03T10:20:07.108Z,38.1
2022-08-03T10:21:07.116Z,36.9
2022-08-03T10:22:07.104Z,37.9
2022-08-03T10:23:07.109Z,36.7
2022-08-03T10:24:07.153Z,36.2
2022-08-03T10:25:07.104Z,36
2022-08-03T10:26:07.106Z,35.2
2022-08-03T10:27:07.110Z,36.3
2022-08-03T10:28:07.110Z,36
2022-08-03T10:29:07.115Z,35
2022-08-03T10:30:07.115Z,35.5
2022-08-03T10:31:07.114Z,35.6
2022-08-03T10:32:07.115Z,36.4
2022-08-03T10:33:49.182Z,35.2
2022-08-03T10:34:07.118Z,35.9
2022-08-03T10:35:19.012Z,35.8
2022-08-03T10:36:07.125Z,34.3
2022-08-03T10:37:07.122Z,35
2022-08-03T10:38:07.112Z,34.2
2022-08-03T10:39:16.012Z,34.8
2022-08-03T10:40:07.119Z,34.8
2022-08-03T10:41:07.118Z,34.3
2022-08-03T10:42:14.679Z,34.6
2022-08-03T10:43:07.120Z,32.8
2022-08-03T10:44:07.127Z,34.3
2022-08-03T10:45:07.131Z,34.3
2022-08-03T10:46:07.146Z,34.3
2022-08-03T10:47:07.127Z,35.4
2022-08-03T10:49:07.215Z,34.9
2022-08-03T10:50:07.135Z,35.5
2022-08-03T10:51:07.143Z,34.7
2022-08-03T10:52:11.416Z,35.1
2022-08-03T10:53:07.128Z,33.8
2022-08-03T10:54:07.136Z,34.5
2022-08-03T10:55:07.580Z,34.7
2022-08-03T10:56:07.126Z,34.4
2022-08-03T10:57:14.368Z,35.5
2022-08-03T10:58:11.119Z,34.8
2022-08-03T10:59:08.857Z,34.9
2022-08-03T11:00:07.133Z,34.2
2022-08-03T11:01:07.183Z,34.5
2022-08-03T11:02:07.136Z,34.8
2022-08-03T11:03:07.145Z,34.1
2022-08-03T11:04:10.951Z,35
2022-08-03T11:05:07.145Z,34.5
2022-08-03T11:06:07.154Z,32.6
2022-08-03T11:07:07.197Z,33
2022-08-03T11:08:07.147Z,33.2
2022-08-03T11:10:10.523Z,33.4
2022-08-03T11:11:07.146Z,34.1
2022-08-03T11:12:07.153Z,33.1
2022-08-03T11:13:07.159Z,33.8
2022-08-03T11:14:07.146Z,34.1
2022-08-03T11:15:07.291Z,33.5
2022-08-03T11:16:10.908Z,33.6
2022-08-03T11:17:07.155Z,31.8
2022-08-03T11:18:07.246Z,32.2
2022-08-03T11:19:07.150Z,33.5
2022-08-03T11:20:07.157Z,33.7
2022-08-03T11:21:07.151Z,34
2022-08-03T11:22:07.189Z,33.2
2022-08-03T11:23:07.156Z,33
2022-08-03T11:24:07.273Z,34.3
2022-08-03T11:25:07.176Z,35
2022-08-03T11:26:07.157Z,33.9
2022-08-03T11:27:07.166Z,33.1
2022-08-03T11:29:07.158Z,33.6
2022-08-03T11:30:07.161Z,33.7
2022-08-03T11:31:07.158Z,33
2022-08-03T11:32:07.198Z,33.6
2022-08-03T11:33:07.166Z,33.4
2022-08-03T11:34:07.228Z,32.9
2022-08-03T11:35:07.160Z,33.8
2022-08-03T11:36:07.179Z,33
2022-08-03T11:37:07.168Z,32.9
2022-08-03T11:38:07.165Z,32.6
2022-08-03T11:40:07.171Z,33
2022-08-03T11:41:07.176Z,32.8
2022-08-03T11:42:07.171Z,32.8
2022-08-03T11:43:07.181Z,32.7
2022-08-03T11:44:07.176Z,32.2
2022-08-03T11:45:07.182Z,32.8
2022-08-03T11:46:07.176Z,33.5
2022-08-03T11:47:07.173Z,32.8
2022-08-03T11:48:07.193Z,32.7
2022-08-03T11:49:10.230Z,32.9
2022-08-03T11:50:07.183Z,33.5
2022-08-03T11:51:07.186Z,31.9
2022-08-03T11:52:07.185Z,30.5
2022-08-03T11:54:07.180Z,32.4
2022-08-03T11:55:07.180Z,31
2022-08-03T11:56:12.857Z,31.6
2022-08-03T11:57:07.181Z,32
2022-08-03T11:59:01.718Z,31.7
2022-08-03T11:59:18.007Z,31.4
2022-08-03T12:00:07.191Z,30.3
2022-08-03T12:01:07.256Z,31.5
2022-08-03T12:02:07.190Z,31.4
2022-08-03T12:03:07.242Z,31
2022-08-03T12:04:07.227Z,31.9
2022-08-03T12:05:07.191Z,31
2022-08-03T12:06:07.196Z,31.5
2022-08-03T12:07:07.192Z,30.9
2022-08-03T12:08:07.451Z,31.9
2022-08-03T12:09:07.196Z,32.3
2022-08-03T12:10:07.255Z,32
2022-08-03T12:11:07.202Z,32.9
2022-08-03T12:12:07.202Z,32
2022-08-03T12:14:33.146Z,31.5
2022-08-03T12:14:49.465Z,31
2022-08-03T12:15:07.201Z,31.4
2022-08-03T12:16:07.208Z,31.5
2022-08-03T12:17:07.201Z,32.8
2022-08-03T12:18:07.197Z,31.4
2022-08-03T12:19:07.240Z,31.9
2022-08-03T12:20:07.237Z,32.1
2022-08-03T12:21:07.202Z,31.9
2022-08-03T12:22:07.210Z,32.7
2022-08-03T12:23:07.203Z,32.8
2022-08-03T12:24:07.206Z,32.8
2022-08-03T12:25:07.206Z,32.8
2022-08-03T12:26:07.231Z,32.6
2022-08-03T12:27:07.213Z,32.5
2022-08-03T12:28:37.171Z,33
2022-08-03T12:29:07.206Z,33.2
2022-08-03T12:30:07.304Z,34.4
2022-08-03T12:31:07.214Z,33.6
2022-08-03T12:32:07.235Z,33.2
2022-08-03T12:33:07.215Z,33.2
2022-08-03T12:34:07.215Z,34
2022-08-03T12:35:07.221Z,34
2022-08-03T12:36:07.218Z,34
2022-08-03T12:37:21.991Z,33.5
2022-08-03T12:38:07.224Z,33.8
2022-08-03T12:39:07.224Z,34.1
2022-08-03T12:40:10.395Z,34.3
2022-08-03T12:41:07.219Z,33.9
2022-08-03T12:42:07.218Z,33.9
2022-08-03T12:43:07.223Z,34
2022-08-03T12:44:07.228Z,34.8
2022-08-03T12:45:07.233Z,33
2022-08-03T12:46:07.272Z,33.3
2022-08-03T12:47:07.240Z,31.9
2022-08-03T12:48:07.253Z,32.1
2022-08-03T12:49:07.313Z,31.6
2022-08-03T12:50:07.231Z,30.9
2022-08-03T12:51:07.235Z,31.4
2022-08-03T12:52:07.821Z,30.7
2022-08-03T12:53:09.007Z,30.6
2022-08-03T12:54:07.243Z,31.6
2022-08-03T12:55:07.306Z,31.2
2022-08-03T12:56:07.229Z,31.2
2022-08-03T12:57:07.280Z,32
2022-08-03T12:58:07.264Z,30.9
2022-08-03T12:59:07.237Z,31.2
2022-08-03T13:00:07.241Z,30.4
2022-08-03T13:01:09.869Z,30.7
2022-08-03T13:02:09.499Z,31.2
2022-08-03T13:04:07.243Z,30.8
2022-08-03T13:05:07.247Z,31
2022-08-03T13:06:07.243Z,31
2022-08-03T13:07:16.786Z,30.6
2022-08-03T13:08:07.252Z,30.7
2022-08-03T13:09:07.255Z,30.6
2022-08-03T13:10:08.276Z,29
2022-08-03T13:11:07.255Z,29
2022-08-03T13:12:08.275Z,29.4
2022-08-03T13:13:07.255Z,29.7
2022-08-03T13:14:07.260Z,30
2022-08-03T13:15:07.263Z,29.5
2022-08-03T13:16:07.249Z,30
2022-08-03T13:17:07.259Z,28.4
2022-08-03T13:18:07.255Z,29.4
2022-08-03T13:19:07.257Z,29.9
2022-08-03T13:20:07.262Z,30.7
2022-08-03T13:21:07.262Z,29.9
2022-08-03T13:22:07.322Z,28.7
2022-08-03T13:23:07.255Z,30.7
2022-08-03T13:24:07.264Z,29.6
2022-08-03T13:25:07.267Z,30.4
2022-08-03T13:26:07.264Z,30.1
2022-08-03T13:27:22.506Z,29.6
2022-08-03T13:28:09.803Z,29.4
2022-08-03T13:29:07.266Z,29
2022-08-03T13:30:07.268Z,29.4
2022-08-03T13:31:07.266Z,28.9
2022-08-03T13:32:07.269Z,30.3
2022-08-03T13:33:07.296Z,29.9
2022-08-03T13:34:07.266Z,30.1
2022-08-03T13:35:07.266Z,30.7
2022-08-03T13:36:07.263Z,29.9
2022-08-03T13:37:19.721Z,29.8
2022-08-03T13:38:07.342Z,29.4
2022-08-03T13:39:09.171Z,30.5
2022-08-03T13:40:07.302Z,29.4
2022-08-03T13:41:07.286Z,30.4
2022-08-03T13:42:07.281Z,30.6
2022-08-03T13:43:07.274Z,30.9
2022-08-03T13:44:29.032Z,31.7
2022-08-03T13:45:07.287Z,30.7
2022-08-03T13:46:07.277Z,31.6
2022-08-03T13:47:07.274Z,31.8
2022-08-03T13:48:07.280Z,30.9
2022-08-03T13:49:07.344Z,31
2022-08-03T13:50:07.284Z,31.3
2022-08-03T13:51:21.592Z,31.5
2022-08-03T13:52:07.290Z,31.7
2022-08-03T13:53:07.287Z,32
2022-08-03T13:54:07.290Z,30.5
2022-08-03T13:55:07.287Z,29.8
2022-08-03T13:56:07.294Z,30.6
2022-08-03T13:58:03.733Z,30.1
2022-08-03T13:58:07.711Z,30.8
2022-08-03T13:59:07.290Z,30.4
2022-08-03T14:00:07.303Z,30.9
2022-08-03T14:01:07.307Z,31
2022-08-03T14:02:07.390Z,29.8
2022-08-03T14:03:13.683Z,29.7
2022-08-03T14:04:15.913Z,29
2022-08-03T14:05:07.291Z,29.4
2022-08-03T14:06:07.301Z,29.8
2022-08-03T14:07:07.353Z,29.7
2022-08-03T14:08:07.301Z,29.9
2022-08-03T14:09:07.301Z,29.6
2022-08-03T14:10:07.296Z,29.4
2022-08-03T14:11:07.306Z,29.1
2022-08-03T14:12:08.823Z,28.9
2022-08-03T14:13:07.308Z,29.2
2022-08-03T14:14:07.302Z,29.4
2022-08-03T14:15:07.318Z,29.5
2022-08-03T14:16:07.374Z,29.9
2022-08-03T14:17:07.307Z,28.9
2022-08-03T14:18:07.334Z,28.1
2022-08-03T14:19:07.314Z,28.9
2022-08-03T14:20:25.941Z,29.2
2022-08-03T14:21:07.585Z,29.1
2022-08-03T14:22:07.313Z,29.5
2022-08-03T14:23:07.330Z,29
2022-08-03T14:24:07.310Z,28.2
2022-08-03T14:25:07.358Z,28.7
2022-08-03T14:26:07.323Z,27.7
2022-08-03T14:27:09.423Z,28
2022-08-03T14:28:07.317Z,27.7
2022-08-03T14:30:07.317Z,28.3
2022-08-03T14:31:08.432Z,27.1
2022-08-03T14:32:10.138Z,27.6
2022-08-03T14:33:07.324Z,27.9
2022-08-03T14:34:07.330Z,27.5
2022-08-03T14:35:07.321Z,26.6
2022-08-03T14:36:07.321Z,27
2022-08-03T14:37:07.336Z,26.8
2022-08-03T14:38:07.331Z,27.7
2022-08-03T14:39:07.397Z,27.6
2022-08-03T14:40:07.398Z,28
2022-08-03T14:41:07.338Z,27.2
2022-08-03T14:42:07.334Z,26.4
2022-08-03T14:43:07.331Z,27.2
2022-08-03T14:44:07.337Z,27.2
2022-08-03T14:45:09.505Z,26.8
2022-08-03T14:46:07.330Z,26.6
2022-08-03T14:47:07.343Z,26.7
2022-08-03T14:50:29.229Z,27.5
2022-08-03T14:50:32.031Z,28.2
2022-08-03T14:50:38.921Z,28.1
2022-08-03T14:51:07.335Z,27.2
2022-08-03T14:52:07.336Z,28
2022-08-03T14:53:07.347Z,28.1
2022-08-03T14:54:07.348Z,27.3
2022-08-03T14:55:07.412Z,27.1
2022-08-03T14:56:10.456Z,26.9
2022-08-03T14:57:07.349Z,26.6
2022-08-03T14:58:21.047Z,25.8
2022-08-03T14:59:07.353Z,26.8
2022-08-03T15:00:07.351Z,27.3
2022-08-03T15:02:04.878Z,26.5
2022-08-03T15:02:11.024Z,26.2
2022-08-03T15:03:07.401Z,27
2022-08-03T15:04:07.353Z,27.4
2022-08-03T15:05:07.440Z,27.2
2022-08-03T15:06:07.349Z,27.8
2022-08-03T15:07:07.355Z,27.1
2022-08-03T15:08:09.279Z,28
2022-08-03T15:09:21.624Z,27.3
2022-08-03T15:10:07.350Z,27.3
2022-08-03T15:11:07.356Z,26.1
2022-08-03T15:12:07.356Z,26.9
2022-08-03T15:13:07.363Z,27.7
2022-08-03T15:14:09.314Z,27.4
2022-08-03T15:15:07.368Z,26.9
2022-08-03T15:16:07.364Z,27.4
2022-08-03T15:17:07.366Z,26.3
2022-08-03T15:18:07.369Z,27.3
2022-08-03T15:20:02.036Z,27
2022-08-03T15:20:25.505Z,27.6
2022-08-03T15:21:07.368Z,26.6
2022-08-03T15:22:07.368Z,25.8
2022-08-03T15:23:07.371Z,26.9
2022-08-03T15:24:07.372Z,26.1
2022-08-03T15:26:29.356Z,26.2
2022-08-03T15:26:32.894Z,26
2022-08-03T15:27:07.381Z,25.9
2022-08-03T15:28:07.370Z,25.6
2022-08-03T15:29:07.381Z,25.7
2022-08-03T15:30:10.036Z,25.9
2022-08-03T15:31:07.378Z,26.3
2022-08-03T15:32:09.442Z,26.2
2022-08-03T15:33:07.376Z,26.2
2022-08-03T15:34:07.380Z,26.4
2022-08-03T15:35:07.389Z,25.6
2022-08-03T15:36:07.374Z,26
2022-08-03T15:37:15.098Z,25.9
2022-08-03T15:38:09.464Z,25.8
2022-08-03T15:39:07.396Z,26
2022-08-03T15:40:07.412Z,25.9
2022-08-03T15:41:09.924Z,26.4
2022-08-03T15:42:07.383Z,26
2022-08-03T15:43:07.395Z,26.2
2022-08-03T15:44:09.273Z,26.3
2022-08-03T15:45:07.383Z,25.9
2022-08-03T15:46:33.240Z,25.9
2022-08-03T15:47:07.396Z,25.6
2022-08-03T15:48:07.400Z,26.3
2022-08-03T15:49:07.399Z,25.8
2022-08-03T15:50:09.811Z,26
2022-08-03T15:51:07.392Z,26.3
2022-08-03T15:52:07.394Z,26.4
2022-08-03T15:53:07.393Z,26.3
2022-08-03T15:54:07.392Z,25.9
2022-08-03T15:55:07.395Z,26.4
2022-08-03T15:56:11.385Z,26.2
2022-08-03T15:57:07.401Z,26.2
2022-08-03T15:59:09.395Z,26.6
2022-08-03T15:59:13.332Z,26
2022-08-03T16:00:07.423Z,26.1
2022-08-03T16:01:07.463Z,26.3
2022-08-03T16:02:07.407Z,26.7
2022-08-03T16:03:07.410Z,26.9
2022-08-03T16:04:07.400Z,27.6
2022-08-03T16:05:07.401Z,27.6
2022-08-03T16:06:07.409Z,28.3
2022-08-03T16:08:13.224Z,28.3
2022-08-03T16:09:24.000Z,28.5
2022-08-03T16:10:07.447Z,29.3
2022-08-03T16:11:07.424Z,28.3
2022-08-03T16:12:13.292Z,28.4
2022-08-03T16:13:07.411Z,28.9
2022-08-03T16:14:30.693Z,28.8
2022-08-03T16:15:07.415Z,28.3
2022-08-03T16:16:07.419Z,28.6
2022-08-03T16:17:07.413Z,29.4
2022-08-03T16:18:07.412Z,29
2022-08-03T16:19:07.415Z,28.4
2022-08-03T16:20:10.575Z,28.5
2022-08-03T16:21:07.419Z,29.3
2022-08-03T16:22:07.427Z,29.4
2022-08-03T16:23:11.419Z,28.5
2022-08-03T16:24:07.419Z,28.9
2022-08-03T16:25:15.933Z,28.7
2022-08-03T16:26:09.157Z,27.8
2022-08-03T16:27:07.826Z,28.5
2022-08-03T16:28:12.811Z,28.5
2022-08-03T16:29:22.179Z,28.9
2022-08-03T16:30:07.427Z,28.7
2022-08-03T16:31:07.432Z,28.1
2022-08-03T16:32:09.600Z,28.5
2022-08-03T16:33:07.426Z,28.7
2022-08-03T16:34:07.437Z,29.2
2022-08-03T16:35:07.427Z,29.1
2022-08-03T16:36:07.436Z,29
2022-08-03T16:37:35.229Z,28.6
2022-08-03T16:38:10.384Z,28.9
2022-08-03T16:39:07.560Z,28.1
2022-08-03T16:40:07.438Z,28.3
2022-08-03T16:41:07.468Z,28.6
2022-08-03T16:42:07.435Z,28.3
2022-08-03T16:43:07.445Z,28.5
2022-08-03T16:44:09.995Z,28.8
2022-08-03T16:45:07.444Z,29.2
2022-08-03T16:46:07.441Z,28.5
2022-08-03T16:47:07.452Z,28.5
2022-08-03T16:48:07.444Z,28.9
2022-08-03T16:49:07.446Z,28.5
2022-08-03T16:50:15.467Z,28.6
2022-08-03T16:51:07.455Z,28.9
2022-08-03T16:52:07.442Z,28.8
2022-08-03T16:53:09.291Z,28
2022-08-03T16:54:12.460Z,28.9
2022-08-03T16:55:07.448Z,28.9
2022-08-03T16:56:10.572Z,28.9
2022-08-03T16:57:07.514Z,29.3
2022-08-03T16:58:07.502Z,29.3
2022-08-03T16:59:07.447Z,29.4
2022-08-03T17:00:07.459Z,30.4
2022-08-03T17:01:21.097Z,29.6
2022-08-03T17:02:10.416Z,29.6
2022-08-03T17:03:18.676Z,30
2022-08-03T17:04:07.455Z,30.2
2022-08-03T17:05:07.456Z,30.6
2022-08-03T17:06:07.455Z,30.2
2022-08-03T17:07:07.476Z,30
2022-08-03T17:08:10.613Z,30
2022-08-03T17:09:09.099Z,30.8
2022-08-03T17:10:07.466Z,31
2022-08-03T17:11:07.463Z,30.3
2022-08-03T17:12:07.470Z,30.8
2022-08-03T17:13:07.462Z,30.7
2022-08-03T17:14:09.780Z,31.4
2022-08-03T17:15:10.557Z,30.8
2022-08-03T17:16:07.468Z,30.9
2022-08-03T17:17:07.495Z,31
2022-08-03T17:18:07.469Z,31.4
2022-08-03T17:19:07.467Z,31.3
2022-08-03T17:21:08.004Z,31
2022-08-03T17:22:07.477Z,29.9
2022-08-03T17:23:07.473Z,30.6
2022-08-03T17:24:12.434Z,30.8
2022-08-03T17:25:07.864Z,31.7
2022-08-03T17:26:14.771Z,31.3
2022-08-03T17:27:08.805Z,31.5
2022-08-03T17:28:49.201Z,31.3
2022-08-03T17:29:12.536Z,31.7
2022-08-03T17:30:07.840Z,32.1
2022-08-03T17:31:23.240Z,31.8
2022-08-03T17:32:10.608Z,31.4
2022-08-03T17:33:07.488Z,31.2
2022-08-03T17:34:07.485Z,31.1
2022-08-03T17:35:07.484Z,31.8
2022-08-03T17:36:07.482Z,31.9
2022-08-03T17:37:07.485Z,32.1
2022-08-03T17:38:12.073Z,32
2022-08-03T17:39:07.566Z,32.7
2022-08-03T17:40:07.565Z,33.1
2022-08-03T17:41:10.631Z,32.8
2022-08-03T17:42:29.548Z,33
2022-08-03T17:44:12.958Z,33.2
2022-08-03T17:44:15.975Z,32.1
2022-08-03T17:45:07.528Z,32.4
2022-08-03T17:46:10.983Z,32.8
2022-08-03T17:47:07.735Z,33.4
2022-08-03T17:48:07.496Z,33.2
2022-08-03T17:50:23.287Z,33.8
2022-08-03T17:51:07.498Z,34.4
2022-08-03T17:52:10.040Z,34.1
2022-08-03T17:53:24.041Z,34.3
2022-08-03T17:54:18.416Z,35.2
2022-08-03T17:55:50.686Z,34.4
2022-08-03T17:56:38.796Z,33.9
2022-08-03T17:57:22.305Z,34.8
2022-08-03T17:58:07.514Z,35.5
2022-08-03T17:59:08.925Z,35.7
2022-08-03T18:00:07.505Z,35.4
2022-08-03T18:01:57.334Z,35.2
2022-08-03T18:02:14.518Z,35.6
2022-08-03T18:03:07.620Z,36.2
2022-08-03T18:04:10.879Z,36.3
2022-08-03T18:05:16.339Z,36.3
2022-08-03T18:06:11.748Z,36
2022-08-03T18:07:11.584Z,36.6
2022-08-03T18:08:11.647Z,36.3
2022-08-03T18:10:05.144Z,36.5
2022-08-03T18:10:11.285Z,36.3
2022-08-03T18:11:09.549Z,36.4
2022-08-03T18:12:07.512Z,36.9
2022-08-03T18:13:10.734Z,36.7
2022-08-03T18:14:16.369Z,36.8
2022-08-03T18:15:08.629Z,36.7
2022-08-03T18:16:07.516Z,37
2022-08-03T18:17:10.501Z,37.5
2022-08-03T18:18:10.970Z,37.2
2022-08-03T18:19:09.729Z,37.2
2022-08-03T18:20:11.662Z,37.6
2022-08-03T18:21:09.366Z,38
2022-08-03T18:22:07.563Z,37.9
2022-08-03T18:23:07.522Z,38
2022-08-03T18:24:07.530Z,38.2
2022-08-03T18:25:08.068Z,38.3
2022-08-03T18:26:07.529Z,38.7
2022-08-03T18:27:07.521Z,39
2022-08-03T18:28:07.529Z,39
2022-08-03T18:29:07.532Z,38.7
2022-08-03T18:30:07.534Z,38.7
2022-08-03T18:31:07.730Z,39.1
2022-08-03T18:32:12.986Z,39.3
2022-08-03T18:34:18.820Z,39.5
2022-08-03T18:34:19.399Z,39.7
2022-08-03T18:35:07.527Z,40
2022-08-03T18:36:07.531Z,40.2
2022-08-03T18:37:08.226Z,40.3
2022-08-03T18:38:10.384Z,40.8
2022-08-03T18:39:07.560Z,40.6
2022-08-03T18:40:07.645Z,40.7
2022-08-03T18:41:15.615Z,40.7
2022-08-03T18:42:07.539Z,40.9
2022-08-03T18:43:08.133Z,41.1
2022-08-03T18:44:09.583Z,41.2
2022-08-03T18:45:55.021Z,41.4
2022-08-03T18:46:07.542Z,41.7
2022-08-03T18:47:16.502Z,41.8
2022-08-03T18:48:07.546Z,41.8
2022-08-03T18:49:08.343Z,41.9
2022-08-03T18:50:07.547Z,42.2
2022-08-03T18:51:07.538Z,42.5
2022-08-03T18:52:12.457Z,42.6
2022-08-03T18:53:15.781Z,43
2022-08-03T18:54:07.564Z,43.2
2022-08-03T18:55:19.778Z,43.1
2022-08-03T18:56:07.546Z,43
2022-08-03T18:57:07.557Z,42.9
2022-08-03T18:58:07.557Z,42.9
2022-08-03T18:59:07.548Z,42.9
2022-08-03T19:00:10.455Z,42.9
2022-08-03T19:01:57.256Z,43.4
2022-08-03T19:02:09.249Z,43.4
2022-08-03T19:03:07.553Z,43.8
2022-08-03T19:04:07.556Z,44.2
2022-08-03T19:05:07.556Z,43.9
2022-08-03T19:06:15.911Z,44
2022-08-03T19:08:07.582Z,44.4
2022-08-03T19:09:09.465Z,44.8
2022-08-03T19:10:07.567Z,45
2022-08-03T19:11:07.565Z,44.7
2022-08-03T19:12:12.616Z,44.7
2022-08-03T19:13:11.442Z,44.7
2022-08-03T19:14:07.571Z,45
2022-08-03T19:15:10.340Z,45.1
2022-08-03T19:16:08.621Z,44.9
2022-08-03T19:17:07.569Z,45.3
2022-08-03T19:18:10.881Z,45.2
2022-08-03T19:19:07.568Z,45.6
2022-08-03T19:20:07.570Z,45.5
2022-08-03T19:21:15.699Z,45.6
2022-08-03T19:22:07.564Z,46
2022-08-03T19:23:07.568Z,46.1
2022-08-03T19:24:10.029Z,46.2
2022-08-03T19:25:07.570Z,46.6
2022-08-03T19:26:07.576Z,46.7
2022-08-03T19:27:10.641Z,47
2022-08-03T19:28:07.575Z,47.3
2022-08-03T19:29:10.797Z,47.7
2022-08-03T19:30:19.797Z,48.3
2022-08-03T19:31:10.987Z,48.6
2022-08-03T19:32:07.589Z,48.4
2022-08-03T19:33:07.577Z,47.9
2022-08-03T19:34:07.576Z,47.8
2022-08-03T19:35:13.228Z,48.8
2022-08-03T19:36:10.703Z,48.7
2022-08-03T19:37:07.585Z,48.9
2022-08-03T19:38:07.589Z,49
2022-08-03T19:39:08.305Z,49
2022-08-03T19:40:10.292Z,49.1
2022-08-03T19:41:07.583Z,49.2
2022-08-03T19:42:20.486Z,49.3